Time;durP1;ratioP1;P1;durP2;ratioP2;P2;SDS_P1;SDS_P2;PMS_P1;PMS_P2;Temp;Humidity;BMP_temperature;BMP_pressure;BME280_temperature;BME280_humidity;BME280_pressure;Samples;Min_cycle;Max_cycle;Signal;HPM_P1;HPM_P2
2022/10/28 00:00:01;;;;;;;9.60;4.37;;;;;;;13.29;80.72;95675.56;5051828;28;20618;-64
2022/10/28 00:02:26;;;;;;;6.20;3.83;;;;;;;13.26;81.00;95680.94;5051982;28;20193;-62
2022/10/28 00:04:52;;;;;;;5.77;3.53;;;;;;;13.07;81.58;95656.97;5051931;28;20568;-63
2022/10/28 00:07:17;;;;;;;6.27;3.10;;;;;;;13.09;80.96;95676.31;5051851;28;20189;-61
2022/10/28 00:09:43;;;;;;;6.47;3.73;;;;;;;13.07;80.30;95687.59;5051918;28;20643;-60
2022/10/28 00:12:08;;;;;;;4.47;3.05;;;;;;;12.91;81.31;95657.31;5051701;28;20193;-61
2022/10/28 00:14:33;;;;;;;4.10;3.10;;;;;;;12.86;82.12;95641.56;5051282;28;20209;-60
2022/10/28 00:16:59;;;;;;;4.00;3.07;;;;;;;12.91;83.13;95638.66;5052323;28;20193;-61
2022/10/28 00:19:25;;;;;;;7.40;3.47;;;;;;;12.90;82.83;95645.50;5050279;28;20695;-62
2022/10/28 00:21:50;;;;;;;4.87;2.83;;;;;;;13.04;81.15;95675.88;5050537;28;20277;-62
2022/10/28 00:24:16;;;;;;;4.30;2.80;;;;;;;13.07;80.73;95679.94;5050309;28;20238;-63
2022/10/28 00:26:42;;;;;;;5.15;2.83;;;;;;;13.14;80.00;95696.41;5051735;28;20685;-62
2022/10/28 00:29:14;;;;;;;5.88;3.28;;;;;;;12.93;81.84;95658.00;5051462;28;20205;-61
2022/10/28 00:31:41;;;;;;;3.63;3.00;;;;;;;12.78;82.46;95648.19;5051784;28;20244;-62
2022/10/28 00:34:10;;;;;;;6.50;3.03;;;;;;;12.97;80.74;95679.81;5050335;28;20213;-62
2022/10/28 00:36:38;;;;;;;5.07;2.87;;;;;;;13.00;78.41;95722.16;5051718;28;20189;-62
2022/10/28 00:39:10;;;;;;;4.13;2.70;;;;;;;12.95;78.78;95704.63;5051296;28;20214;-61
2022/10/28 00:41:37;;;;;;;3.60;2.40;;;;;;;12.93;78.75;95719.25;5051691;28;20652;-63
2022/10/28 00:44:40;;;;;;;4.70;2.77;;;;;;;12.42;80.08;95669.66;5051221;28;20767;-61
2022/10/28 00:47:29;;;;;;;3.00;2.33;;;;;;;12.01;82.09;95637.06;5051322;28;20287;-62
2022/10/28 00:50:02;;;;;;;4.97;2.40;;;;;;;11.69;84.54;95603.81;5039027;28;20229;-62
2022/10/28 00:52:30;;;;;;;2.30;2.00;;;;;;;11.64;85.10;95600.72;5051192;28;20236;-62
2022/10/28 00:54:58;;;;;;;4.37;2.50;;;;;;;11.62;85.28;95602.59;5066453;28;20217;-62
2022/10/28 00:57:29;;;;;;;6.03;2.20;;;;;;;11.58;85.60;95595.28;5051005;28;20276;-61
2022/10/28 00:59:56;;;;;;;2.60;2.30;;;;;;;11.53;86.36;95594.81;5051261;28;20209;-62
2022/10/28 01:02:21;;;;;;;2.73;2.00;;;;;;;11.51;86.18;95600.00;5051202;28;20280;-63
2022/10/28 01:04:47;;;;;;;3.63;2.30;;;;;;;11.51;86.42;95597.44;5051053;28;20233;-59
2022/10/28 01:07:14;;;;;;;5.30;2.23;;;;;;;11.60;87.30;95591.69;5050913;28;20196;-58
2022/10/28 01:09:40;;;;;;;6.43;2.83;;;;;;;11.71;86.72;95607.03;5050949;28;20220;-61
2022/10/28 01:12:32;;;;;;;3.47;2.33;;;;;;;11.66;86.46;95611.66;5049606;28;20217;-62
2022/10/28 01:15:03;;;;;;;5.97;2.20;;;;;;;11.68;85.32;95630.19;5012107;28;20232;-59
2022/10/28 01:17:47;;;;;;;3.30;2.40;;;;;;;11.59;86.60;95613.00;5050835;28;20174;-59
2022/10/28 01:20:31;;;;;;;3.83;2.60;;;;;;;11.72;86.39;95623.94;5050965;28;20259;-58
2022/10/28 01:23:09;;;;;;;4.70;2.83;;;;;;;11.65;86.67;95615.09;5049549;28;20189;-60
2022/10/28 01:26:06;;;;;;;4.10;2.40;;;;;;;11.65;87.49;95611.75;5048477;28;20777;-60
2022/10/28 01:28:49;;;;;;;4.60;2.90;;;;;;;11.72;86.76;95621.38;5050768;28;20173;-59
2022/10/28 01:31:17;;;;;;;5.47;2.70;;;;;;;11.76;86.18;95632.97;5050806;28;20200;-60
2022/10/28 01:33:50;;;;;;;3.20;2.50;;;;;;;11.84;85.16;95647.69;5050718;28;21169;-62
2022/10/28 01:36:44;;;;;;;4.40;2.47;;;;;;;11.82;85.78;95639.34;5049336;28;20284;-61
2022/10/28 01:39:34;;;;;;;3.77;2.40;;;;;;;11.74;85.79;95646.75;5018783;28;20221;-61
2022/10/28 01:42:12;;;;;;;5.00;2.50;;;;;;;11.65;87.56;95620.19;5050833;28;20190;-59
2022/10/28 01:44:50;;;;;;;3.77;2.60;;;;;;;11.55;88.15;95610.78;5050376;28;20725;-60
2022/10/28 01:47:21;;;;;;;4.13;2.20;;;;;;;11.71;87.56;95629.16;5050742;28;20240;-59
2022/10/28 01:49:54;;;;;;;3.33;2.37;;;;;;;11.84;86.84;95636.72;5050831;28;20299;-58
2022/10/28 01:52:24;;;;;;;4.47;2.77;;;;;;;12.02;85.12;95669.25;5050640;28;20185;-62
2022/10/28 01:54:56;;;;;;;5.47;2.33;;;;;;;11.93;85.59;95666.59;5049120;28;20271;-59
2022/10/28 01:57:26;;;;;;;4.70;2.23;;;;;;;11.77;85.97;95655.00;5050339;28;20571;-61
2022/10/28 01:59:52;;;;;;;7.70;3.50;;;;;;;11.78;86.68;95650.69;5050131;28;20209;-61
2022/10/28 02:02:17;;;;;;;4.07;2.77;;;;;;;11.91;85.37;95671.81;5050674;28;20614;-62
2022/10/28 02:04:43;;;;;;;4.20;2.20;;;;;;;11.79;85.15;95675.25;5050288;28;20251;-61
2022/10/28 02:07:09;;;;;;;4.47;2.67;;;;;;;11.70;85.63;95666.53;5050392;28;20264;-61
2022/10/28 02:09:40;;;;;;;3.40;2.30;;;;;;;11.59;86.73;95646.13;5048927;28;20655;-61
2022/10/28 02:12:11;;;;;;;3.87;2.57;;;;;;;11.24;88.77;95624.94;5050522;28;20232;-62
2022/10/28 02:14:46;;;;;;;6.47;2.67;;;;;;;11.01;90.72;95605.38;5050057;28;20213;-62
2022/10/28 02:17:32;;;;;;;5.17;2.60;;;;;;;10.80;92.87;95587.38;5050172;28;20236;-62
2022/10/28 02:20:03;;;;;;;3.83;2.67;;;;;;;10.75;93.81;95619.94;5009539;28;20700;-62
2022/10/28 02:22:44;;;;;;;5.17;2.40;;;;;;;10.66;94.62;95627.41;5050084;28;20190;-60
2022/10/28 02:25:19;;;;;;;3.47;2.73;;;;;;;10.66;94.88;95637.59;5050170;28;20263;-61
2022/10/28 02:27:57;;;;;;;10.63;2.80;;;;;;;10.55;96.91;95647.66;5050257;28;20217;-59
2022/10/28 02:30:27;;;;;;;4.03;2.97;;;;;;;10.57;96.50;95653.47;5050037;28;20270;-60
2022/10/28 02:32:58;;;;;;;4.00;3.00;;;;;;;10.59;96.72;95654.97;5049908;28;20299;-58
2022/10/28 02:35:40;;;;;;;7.27;2.70;;;;;;;10.70;95.60;95661.88;5049958;28;20209;-59
2022/10/28 02:38:14;;;;;;;4.43;2.47;;;;;;;10.68;96.16;95663.72;5051638;28;20308;-59
2022/10/28 02:40:46;;;;;;;4.20;2.90;;;;;;;10.65;96.12;95661.38;5053378;28;20212;-59
2022/10/28 02:43:14;;;;;;;4.97;2.97;;;;;;;10.72;95.89;95670.22;5053343;28;20190;-59
2022/10/28 02:45:43;;;;;;;4.17;2.60;;;;;;;10.74;95.73;95673.47;5053139;28;20280;-59
2022/10/28 02:48:17;;;;;;;4.00;2.67;;;;;;;10.69;97.44;95676.31;5053220;28;20215;-62
2022/10/28 02:50:50;;;;;;;7.77;2.80;;;;;;;10.77;96.29;95674.06;5053348;28;20215;-63
2022/10/28 02:53:20;;;;;;;4.93;3.10;;;;;;;10.77;95.77;95678.31;5053301;28;20197;-62
2022/10/28 02:55:53;;;;;;;5.10;3.07;;;;;;;10.49;97.76;95659.06;5053092;28;20213;-62
2022/10/28 02:58:19;;;;;;;5.07;3.30;;;;;;;10.41;99.30;95661.31;5053130;28;20256;-61
2022/10/28 03:00:45;;;;;;;5.07;3.10;;;;;;;10.28;100.00;95659.72;5052864;28;20221;-63
2022/10/28 03:03:11;;;;;;;4.43;3.37;;;;;;;10.17;100.00;95677.41;5052738;28;20185;-61
2022/10/28 03:05:37;;;;;;;5.43;3.07;;;;;;;10.13;100.00;95685.25;5052727;28;20213;-62
2022/10/28 03:08:02;;;;;;;5.30;3.07;;;;;;;10.06;100.00;95683.97;5052828;28;20295;-61
2022/10/28 03:10:28;;;;;;;5.27;2.90;;;;;;;10.04;100.00;95678.19;5051317;28;20696;-60
2022/10/28 03:12:53;;;;;;;5.53;3.00;;;;;;;10.16;100.00;95681.66;5052732;28;20213;-61
2022/10/28 03:15:18;;;;;;;4.93;3.27;;;;;;;10.17;100.00;95682.47;5052582;28;20251;-62
2022/10/28 03:17:44;;;;;;;4.70;2.87;;;;;;;10.27;100.00;95680.97;5051361;28;20343;-61
2022/10/28 03:20:10;;;;;;;4.90;2.87;;;;;;;10.35;100.00;95677.00;5051077;28;20346;-62
2022/10/28 03:22:35;;;;;;;5.03;3.40;;;;;;;10.41;100.00;95679.13;5052486;28;20225;-61
2022/10/28 03:25:01;;;;;;;5.93;3.27;;;;;;;10.45;100.00;95684.81;5051014;28;20351;-62
2022/10/28 03:27:26;;;;;;;4.37;3.00;;;;;;;10.44;100.00;95681.47;5052454;28;20269;-61
2022/10/28 03:29:51;;;;;;;3.80;2.63;;;;;;;10.57;99.05;95696.69;5052338;28;20284;-62
2022/10/28 03:32:17;;;;;;;7.87;3.47;;;;;;;10.72;98.18;95699.00;5052270;28;20197;-60
2022/10/28 03:34:42;;;;;;;5.00;3.43;;;;;;;10.73;97.24;95703.16;5051045;28;20216;-63
2022/10/28 03:37:08;;;;;;;5.33;2.60;;;;;;;10.78;97.13;95706.22;5052655;28;20296;-63
2022/10/28 03:39:34;;;;;;;5.10;2.80;;;;;;;10.78;97.36;95705.41;5052225;28;20217;-61
2022/10/28 03:41:59;;;;;;;6.07;3.20;;;;;;;10.79;95.96;95717.19;5052732;28;20186;-61
2022/10/28 03:44:25;;;;;;;5.47;3.63;;;;;;;10.82;95.65;95719.53;5052474;28;20228;-58
2022/10/28 03:46:50;;;;;;;6.03;4.30;;;;;;;11.14;100.00;95713.03;5052391;28;20189;-59
2022/10/28 03:49:15;;;;;;;8.63;5.37;;;;;;;11.61;100.00;95723.22;5051636;28;20209;-61
2022/10/28 03:51:41;;;;;;;8.23;5.13;;;;;;;11.15;100.00;95791.00;5052323;28;20189;-60
2022/10/28 03:54:06;;;;;;;7.47;4.70;;;;;;;10.94;100.00;95782.28;5052200;28;20285;-60
2022/10/28 03:56:32;;;;;;;4.83;2.97;;;;;;;10.78;100.00;95772.34;5051042;28;20622;-61
2022/10/28 03:58:57;;;;;;;6.77;3.10;;;;;;;10.64;100.00;95759.75;5051908;28;20296;-61
2022/10/28 04:01:22;;;;;;;8.67;4.23;;;;;;;10.58;100.00;95759.34;5051963;28;20190;-61
2022/10/28 04:03:48;;;;;;;4.77;3.60;;;;;;;10.48;100.00;95750.72;5050731;28;20243;-61
2022/10/28 04:06:13;;;;;;;3.93;2.80;;;;;;;10.38;100.00;95752.22;5051910;28;20250;-64
2022/10/28 04:08:39;;;;;;;6.77;3.20;;;;;;;10.25;100.00;95731.06;5051864;28;20216;-63
2022/10/28 04:11:05;;;;;;;4.10;3.40;;;;;;;10.24;100.00;95739.63;5051873;28;20268;-63
2022/10/28 04:13:30;;;;;;;6.00;3.00;;;;;;;10.17;100.00;95728.22;5051884;28;20666;-64
2022/10/28 04:15:56;;;;;;;5.17;3.13;;;;;;;10.17;100.00;95735.84;5051802;28;20280;-64
2022/10/28 04:18:21;;;;;;;4.33;3.27;;;;;;;10.21;100.00;95742.34;5050688;28;20266;-64
2022/10/28 04:20:46;;;;;;;4.57;3.13;;;;;;;10.21;100.00;95742.34;5051884;28;20248;-64
2022/10/28 04:23:17;;;;;;;9.73;3.57;;;;;;;10.08;100.00;95734.69;5052004;28;20656;-64
2022/10/28 04:25:43;;;;;;;5.10;3.30;;;;;;;10.01;100.00;95736.84;5051861;28;20672;-66
2022/10/28 04:28:08;;;;;;;4.67;2.90;;;;;;;9.87;100.00;95721.69;5050428;28;20197;-64
2022/10/28 04:30:34;;;;;;;6.13;2.93;;;;;;;9.91;100.00;95725.66;5051802;28;20217;-62
2022/10/28 04:32:59;;;;;;;6.80;4.03;;;;;;;9.97;100.00;95735.41;5052095;28;20200;-63
2022/10/28 04:35:25;;;;;;;5.47;3.30;;;;;;;9.90;100.00;95715.56;5051458;28;20213;-63
2022/10/28 04:37:50;;;;;;;9.37;3.40;;;;;;;9.91;100.00;95720.56;5051648;28;21369;-63
2022/10/28 04:40:16;;;;;;;7.83;3.73;;;;;;;9.92;100.00;95712.00;5051499;28;20581;-63
2022/10/28 04:42:41;;;;;;;8.57;3.87;;;;;;;10.06;100.00;95729.72;5050209;28;20595;-63
2022/10/28 04:45:08;;;;;;;7.50;3.80;;;;;;;10.10;100.00;95727.81;5050981;28;20570;-64
2022/10/28 04:47:33;;;;;;;4.97;3.00;;;;;;;10.13;100.00;95736.06;5051436;28;20231;-64
2022/10/28 04:49:59;;;;;;;4.60;3.10;;;;;;;10.34;100.00;95766.88;5051243;28;20619;-63
2022/10/28 04:52:24;;;;;;;5.47;3.50;;;;;;;10.23;100.00;95743.06;5050082;28;20181;-67
2022/10/28 04:54:50;;;;;;;8.50;2.97;;;;;;;10.40;100.00;95750.41;5051253;28;20205;-66
2022/10/28 04:57:15;;;;;;;4.97;3.47;;;;;;;10.41;100.00;95740.13;5049870;28;20207;-60
2022/10/28 04:59:40;;;;;;;8.13;3.77;;;;;;;10.31;100.00;95753.53;5050940;28;20215;-60
2022/10/28 05:02:06;;;;;;;8.50;3.67;;;;;;;10.27;100.00;95744.50;5051630;28;20557;-68
2022/10/28 05:04:31;;;;;;;7.33;3.50;;;;;;;10.40;100.00;95763.94;5051084;28;20201;-67
2022/10/28 05:06:57;;;;;;;10.50;3.30;;;;;;;10.46;100.00;95783.03;5051519;28;20219;-67
2022/10/28 05:09:22;;;;;;;4.87;3.13;;;;;;;10.36;100.00;95759.97;5049844;28;20625;-68
2022/10/28 05:11:48;;;;;;;6.17;3.17;;;;;;;10.47;100.00;95743.97;5051134;28;20182;-63
2022/10/28 05:14:13;;;;;;;8.40;3.40;;;;;;;10.44;100.00;95726.41;5050897;28;20324;-60
2022/10/28 05:16:38;;;;;;;6.37;3.77;;;;;;;10.66;100.00;95780.00;5049742;28;20656;-64
2022/10/28 05:19:04;;;;;;;5.47;3.07;;;;;;;10.56;100.00;95751.81;5049617;28;20217;-63
2022/10/28 05:21:29;;;;;;;5.93;3.93;;;;;;;10.79;100.00;95719.72;5051065;28;20271;-60
2022/10/28 05:23:54;;;;;;;5.53;4.07;;;;;;;11.07;100.00;95737.25;5050784;28;20248;-68
2022/10/28 05:26:20;;;;;;;8.47;4.57;;;;;;;12.22;100.00;95744.28;5051223;28;20193;-63
2022/10/28 05:28:49;;;;;;;4.97;3.30;;;;;;;12.62;100.00;95737.84;5050819;28;20573;-67
2022/10/28 05:31:15;;;;;;;22.00;10.83;;;;;;;12.00;100.00;95823.25;5050988;28;20268;-67
2022/10/28 05:33:41;;;;;;;20.17;11.30;;;;;;;11.62;100.00;95796.16;5050751;28;20220;-67
2022/10/28 05:36:06;;;;;;;20.73;10.63;;;;;;;11.72;100.00;95873.59;5050787;28;20637;-65
2022/10/28 05:38:32;;;;;;;17.50;9.50;;;;;;;11.61;100.00;95903.25;5049212;28;20221;-63
2022/10/28 05:40:57;;;;;;;11.27;5.50;;;;;;;11.60;100.00;95939.81;5049776;28;20691;-63
2022/10/28 05:43:23;;;;;;;9.10;5.63;;;;;;;11.41;100.00;95879.13;5048309;28;20189;-63
2022/10/28 05:48:39;;;;;;;7.63;4.27;;;;;;;11.37;100.00;95887.09;5050879;28;20200;-62
2022/10/28 05:51:05;;;;;;;9.67;4.90;;;;;;;11.22;100.00;95868.56;5050839;28;20558;-62
2022/10/28 05:53:30;;;;;;;10.10;4.37;;;;;;;11.36;100.00;95880.34;5050540;28;20664;-63
2022/10/28 05:55:55;;;;;;;9.40;4.10;;;;;;;11.17;100.00;95902.91;5074880;23;20618;-63
2022/10/28 05:58:21;;;;;;;5.17;3.50;;;;;;;10.92;100.00;95885.91;5050437;28;20300;-62
2022/10/28 06:00:46;;;;;;;26.83;9.80;;;;;;;10.63;100.00;95813.22;5050354;28;20691;-62
2022/10/28 06:03:12;;;;;;;12.27;5.67;;;;;;;10.75;100.00;95808.16;5050205;28;20189;-63
2022/10/28 06:05:40;;;;;;;16.83;6.90;;;;;;;10.96;100.00;95844.88;5050416;28;20293;-66
2022/10/28 06:08:06;;;;;;;5.30;4.00;;;;;;;10.85;100.00;95854.13;5050309;28;20732;-62
2022/10/28 06:10:32;;;;;;;14.83;6.00;;;;;;;10.94;100.00;95828.91;5050277;28;20205;-62
2022/10/28 06:12:58;;;;;;;15.43;6.53;;;;;;;11.04;100.00;95846.91;5053204;28;20232;-64
2022/10/28 06:15:23;;;;;;;7.77;3.53;;;;;;;11.01;100.00;95870.00;5053632;28;20212;-61
2022/10/28 06:17:49;;;;;;;5.30;3.67;;;;;;;11.09;100.00;95838.97;5053558;28;20217;-62
2022/10/28 06:20:16;;;;;;;6.63;3.50;;;;;;;11.11;100.00;95807.38;5053611;28;20270;-61
2022/10/28 06:22:52;;;;;;;4.93;3.20;;;;;;;11.27;100.00;95891.19;5053441;28;20339;-62
2022/10/28 06:25:19;;;;;;;8.30;3.93;;;;;;;11.23;100.00;95852.38;5053447;28;20220;-62
2022/10/28 06:27:45;;;;;;;6.03;4.00;;;;;;;11.34;100.00;95889.81;5053803;28;20186;-62
2022/10/28 06:30:11;;;;;;;6.23;3.60;;;;;;;11.44;100.00;95870.47;5052431;28;20647;-62
2022/10/28 06:32:36;;;;;;;7.13;3.83;;;;;;;11.36;100.00;95858.25;5053578;28;20669;-60
2022/10/28 06:35:02;;;;;;;6.40;3.43;;;;;;;11.39;100.00;95865.69;5053670;28;20224;-63
2022/10/28 06:37:27;;;;;;;7.33;3.80;;;;;;;11.44;100.00;95819.53;5053397;28;20800;-63
2022/10/28 06:39:53;;;;;;;6.60;4.37;;;;;;;11.61;100.00;95880.31;5053336;28;20224;-62
2022/10/28 06:42:19;;;;;;;9.50;4.60;;;;;;;11.82;100.00;95891.56;5052452;28;20269;-61
2022/10/28 06:44:44;;;;;;;9.20;4.47;;;;;;;11.55;100.00;95881.53;5061200;22;20600;-61
2022/10/28 06:47:10;;;;;;;5.87;4.17;;;;;;;11.52;100.00;95896.22;5054128;28;20701;-63
2022/10/28 06:49:35;;;;;;;14.20;5.47;;;;;;;11.82;100.00;95900.97;5054981;28;20211;-62
2022/10/28 06:52:00;;;;;;;11.17;5.80;;;;;;;11.99;100.00;95896.31;5073062;28;20666;-61
2022/10/28 06:54:26;;;;;;;10.60;5.77;;;;;;;11.99;100.00;95870.03;5072935;28;20216;-62
2022/10/28 06:56:52;;;;;;;11.03;6.13;;;;;;;11.82;100.00;95904.31;5072987;28;20187;-62
2022/10/28 06:59:17;;;;;;;14.43;6.13;;;;;;;11.94;100.00;95934.03;5072857;28;20573;-61
2022/10/28 07:01:42;;;;;;;15.30;6.93;;;;;;;11.96;100.00;95916.13;5073072;28;20277;-64
2022/10/28 07:04:12;;;;;;;10.90;6.43;;;;;;;11.97;100.00;95927.94;5051689;23;20801;-62
2022/10/28 07:06:38;;;;;;;15.53;9.33;;;;;;;12.07;100.00;95939.09;5033142;28;20328;-64
2022/10/28 07:09:04;;;;;;;13.57;9.27;;;;;;;12.09;100.00;95932.16;5032872;28;20214;-64
2022/10/28 07:11:29;;;;;;;26.07;14.70;;;;;;;12.23;100.00;95924.34;5032829;28;20705;-63
2022/10/28 07:13:55;;;;;;;24.10;8.27;;;;;;;12.33;100.00;95920.22;5033095;28;20611;-63
2022/10/28 07:16:20;;;;;;;12.73;5.83;;;;;;;12.20;100.00;95950.09;5032741;28;20241;-63
2022/10/28 07:18:46;;;;;;;11.80;7.60;;;;;;;12.18;100.00;95890.75;5032890;28;20233;-65
2022/10/28 07:21:12;;;;;;;12.03;5.80;;;;;;;12.33;100.00;95824.16;5015125;28;20196;-61
2022/10/28 07:23:38;;;;;;;11.37;5.80;;;;;;;12.49;100.00;95918.22;5031644;28;20186;-62
2022/10/28 07:26:03;;;;;;;12.00;5.43;;;;;;;12.76;100.00;95959.63;5032708;28;20687;-62
2022/10/28 07:28:29;;;;;;;13.17;6.33;;;;;;;12.70;100.00;95924.34;5032751;28;20186;-61
2022/10/28 07:30:59;;;;;;;12.80;6.03;;;;;;;12.91;100.00;95981.47;5031149;28;20208;-61
2022/10/28 07:33:25;;;;;;;14.00;7.47;;;;;;;12.95;100.00;95984.63;5032561;28;20202;-61
2022/10/28 07:35:50;;;;;;;12.67;6.50;;;;;;;12.93;100.00;95997.47;5014573;28;20218;-61
2022/10/28 07:38:18;;;;;;;13.63;7.40;;;;;;;12.90;100.00;95946.66;5014999;28;20299;-61
2022/10/28 07:40:44;;;;;;;15.97;7.10;;;;;;;13.06;100.00;95946.38;5032944;28;20222;-63
2022/10/28 07:43:09;;;;;;;17.95;7.60;;;;;;;13.12;100.00;95946.75;5014769;28;20190;-61
2022/10/28 07:45:42;;;;;;;13.97;8.77;;;;;;;13.16;100.00;95970.31;5032613;28;20214;-60
2022/10/28 07:48:08;;;;;;;24.00;9.63;;;;;;;13.29;100.00;95979.50;5032736;28;20225;-61
2022/10/28 07:50:33;;;;;;;15.88;7.97;;;;;;;13.61;100.00;95989.88;5032247;28;20602;-64
2022/10/28 07:52:59;;;;;;;14.65;7.93;;;;;;;13.89;100.00;96044.84;5014423;28;20656;-61
2022/10/28 07:55:25;;;;;;;13.47;8.10;;;;;;;13.94;100.00;96029.94;5032270;28;20206;-60
2022/10/28 07:57:50;;;;;;;24.83;9.02;;;;;;;14.13;100.00;96048.91;5032211;28;20212;-62
2022/10/28 08:00:15;;;;;;;17.85;8.80;;;;;;;14.15;100.00;96044.50;5014487;28;20202;-63
2022/10/28 08:02:41;;;;;;;13.07;8.77;;;;;;;14.32;100.00;96035.56;5014383;28;20703;-63
2022/10/28 08:05:07;;;;;;;14.93;8.53;;;;;;;14.60;100.00;96022.25;5031919;28;20214;-63
2022/10/28 08:07:33;;;;;;;18.35;9.45;;;;;;;14.78;100.00;96033.59;5030621;28;20198;-63
2022/10/28 08:09:58;;;;;;;30.35;8.55;;;;;;;15.03;100.00;96078.53;5032368;28;20209;-62
2022/10/28 08:12:24;;;;;;;25.48;8.77;;;;;;;15.21;100.00;96002.75;5031819;28;20197;-60
2022/10/28 08:14:49;;;;;;;18.52;9.32;;;;;;;15.40;100.00;96102.84;5014007;28;20236;-62
2022/10/28 08:17:15;;;;;;;15.77;8.20;;;;;;;15.29;98.65;96125.94;4997702;28;20182;-61
2022/10/28 08:19:41;;;;;;;12.63;7.90;;;;;;;15.62;97.79;96143.78;5031736;28;20218;-63
2022/10/28 08:22:06;;;;;;;12.70;8.30;;;;;;;15.77;97.37;96134.03;5031874;28;20213;-64
2022/10/28 08:24:32;;;;;;;21.77;8.75;;;;;;;15.69;96.18;96144.13;5031922;28;20684;-63
2022/10/28 08:26:57;;;;;;;20.42;8.55;;;;;;;15.93;95.28;96158.31;5031917;28;20198;-63
2022/10/28 08:29:23;;;;;;;19.75;8.68;;;;;;;16.15;95.16;96153.97;5014284;28;20596;-63
2022/10/28 08:31:48;;;;;;;19.20;8.48;;;;;;;16.58;96.15;96124.59;5014194;28;20186;-65
2022/10/28 08:34:14;;;;;;;13.85;7.88;;;;;;;16.82;94.92;96149.97;5030324;28;20222;-61
2022/10/28 08:36:39;;;;;;;21.02;8.88;;;;;;;16.49;91.46;96194.72;5031872;28;20220;-64
2022/10/28 08:39:05;;;;;;;15.20;8.73;;;;;;;16.76;90.33;96210.41;5031790;28;20218;-61
2022/10/28 08:41:44;;;;;;;12.35;8.38;;;;;;;16.98;90.02;96198.28;5032057;28;20261;-62
2022/10/28 08:44:37;;;;;;;17.40;8.68;;;;;;;17.29;100.00;95734.59;5049342;23;20700;-60
2022/10/28 08:47:22;;;;;;;12.20;8.55;;;;;;;17.14;79.57;96219.16;5107391;28;20215;-64
2022/10/28 08:49:54;;;;;;;16.00;8.40;;;;;;;17.42;81.58;96134.38;5091648;28;20230;-63
2022/10/28 08:52:33;;;;;;;18.52;8.57;;;;;;;17.72;81.54;96138.59;5091917;28;20199;-60
2022/10/28 08:55:23;;;;;;;13.73;7.70;;;;;;;18.06;71.26;96307.06;5092102;28;20203;-62
2022/10/28 08:57:56;;;;;;;8.27;6.68;;;;;;;18.07;67.60;96311.28;5091425;28;20216;-61
2022/10/28 09:00:26;;;;;;;13.82;6.55;;;;;;;17.97;67.18;96266.72;5091815;28;20207;-64
2022/10/28 09:03:07;;;;;;;8.85;6.18;;;;;;;18.23;68.58;96190.53;5091581;28;20196;-63
2022/10/28 09:05:33;;;;;;;10.10;6.68;;;;;;;18.15;66.07;96251.38;5091407;28;20587;-60
2022/10/28 09:08:01;;;;;;;11.02;5.90;;;;;;;18.64;67.39;96222.88;5090732;28;20245;-60
2022/10/28 09:10:45;;;;;;;32.30;7.82;;;;;;;19.13;66.48;96229.44;5090405;28;20220;-63
2022/10/28 09:13:22;;;;;;;16.70;6.13;;;;;;;19.45;63.52;96280.63;5088899;28;20200;-60
2022/10/28 09:15:58;;;;;;;17.30;6.28;;;;;;;19.63;63.38;96263.41;5091000;28;20208;-60
2022/10/28 09:18:58;;;;;;;11.05;6.05;;;;;;;20.00;60.81;96320.88;5091358;28;20666;-63
2022/10/28 09:21:37;;;;;;;9.70;5.80;;;;;;;20.24;60.28;96315.19;5106750;28;20216;-61
2022/10/28 09:24:19;;;;;;;19.27;6.90;;;;;;;20.40;61.60;96261.06;5091083;28;20212;-61
2022/10/28 09:27:09;;;;;;;9.70;6.68;;;;;;;20.50;60.13;96285.03;5091045;28;20195;-64
2022/10/28 09:30:05;;;;;;;12.98;6.97;;;;;;;20.91;58.43;96305.84;5091299;28;20204;-63
2022/10/28 09:33:08;;;;;;;15.20;6.63;;;;;;;21.24;58.21;96306.88;5090839;28;20192;-63
2022/10/28 09:35:40;;;;;;;16.10;6.68;;;;;;;21.60;57.16;96318.66;5089135;28;20218;-62
2022/10/28 09:38:23;;;;;;;12.73;5.95;;;;;;;21.92;58.15;96280.91;5089605;28;20249;-60
2022/10/28 09:40:54;;;;;;;10.55;5.60;;;;;;;22.17;61.48;96184.91;5088714;28;20211;-61
2022/10/28 09:43:44;;;;;;;13.52;6.03;;;;;;;22.35;57.51;96272.84;5090813;28;20195;-62
2022/10/28 09:46:13;;;;;;;15.07;5.20;;;;;;;22.61;52.55;96407.53;5091204;28;20609;-63
2022/10/28 09:48:42;;;;;;;10.48;5.35;;;;;;;22.73;52.48;96378.53;5094605;28;20191;-63
2022/10/28 09:51:43;;;;;;;10.70;6.00;;;;;;;22.80;51.66;96386.47;5094464;28;20188;-60
2022/10/28 09:54:11;;;;;;;10.43;5.72;;;;;;;22.88;52.73;96322.44;5094270;28;20220;-63
2022/10/28 09:56:37;;;;;;;9.32;4.97;;;;;;;23.04;50.13;96395.06;5094440;28;20192;-63
2022/10/28 09:59:03;;;;;;;8.80;4.40;;;;;;;22.97;49.91;96388.88;5094053;28;20240;-64
2022/10/28 10:01:32;;;;;;;5.53;3.78;;;;;;;22.81;50.78;96342.22;5094163;28;20180;-64
2022/10/28 10:03:58;;;;;;;5.55;3.80;;;;;;;22.78;49.28;96384.06;5094298;28;20678;-64
2022/10/28 10:06:41;;;;;;;6.00;4.13;;;;;;;22.88;49.38;96376.91;5094406;28;20195;-64
2022/10/28 10:09:17;;;;;;;9.77;5.03;;;;;;;22.87;48.65;96393.44;5094511;28;20207;-64
2022/10/28 10:11:46;;;;;;;8.02;4.03;;;;;;;23.10;48.82;96373.66;5109795;28;20183;-61
2022/10/28 10:14:18;;;;;;;4.60;3.20;;;;;;;23.05;47.28;96407.03;5093968;28;20599;-61
2022/10/28 10:16:53;;;;;;;10.38;4.20;;;;;;;23.30;47.55;96406.06;5094049;28;20267;-64
2022/10/28 10:19:18;;;;;;;6.60;3.90;;;;;;;23.54;48.24;96348.09;5093843;28;20294;-59
2022/10/28 10:21:53;;;;;;;4.07;3.00;;;;;;;23.74;47.00;96398.66;5093856;28;20274;-61
2022/10/28 10:24:29;;;;;;;5.68;3.55;;;;;;;23.88;45.20;96446.50;5093953;28;20199;-62
2022/10/28 10:26:56;;;;;;;4.78;3.33;;;;;;;24.08;46.57;96344.59;5075726;28;20229;-61
2022/10/28 10:29:23;;;;;;;5.68;3.33;;;;;;;24.10;45.32;96370.41;5093683;28;20215;-61
2022/10/28 10:32:22;;;;;;;4.28;3.00;;;;;;;24.30;44.37;96368.22;5092546;28;20188;-64
2022/10/28 10:35:00;;;;;;;6.07;2.38;;;;;;;24.15;45.37;96334.34;5074460;22;20229;-64
2022/10/28 10:37:26;;;;;;;9.70;2.95;;;;;;;24.35;45.80;96296.50;5033328;28;20182;-60
2022/10/28 10:40:01;;;;;;;7.45;2.60;;;;;;;23.22;42.85;96364.53;5033431;28;20210;-63
2022/10/28 10:42:26;;;;;;;5.00;2.63;;;;;;;23.75;43.24;96337.13;5033514;28;20189;-60
2022/10/28 10:45:14;;;;;;;4.32;2.65;;;;;;;24.04;43.26;96345.09;5033478;28;20667;-60
2022/10/28 10:47:39;;;;;;;8.90;3.42;;;;;;;24.22;43.01;96335.25;5033254;28;20235;-60
2022/10/28 10:50:33;;;;;;;4.63;2.83;;;;;;;24.35;42.35;96361.50;5033433;28;20665;-60
2022/10/28 10:53:00;;;;;;;10.65;3.08;;;;;;;24.43;42.28;96338.03;5033281;28;20178;-61
2022/10/28 10:55:34;;;;;;;4.60;2.97;;;;;;;24.41;41.02;96384.22;5015521;28;20206;-60
2022/10/28 10:58:01;;;;;;;7.38;3.10;;;;;;;24.23;43.01;96279.69;5033037;28;22081;-63
2022/10/28 11:00:34;;;;;;;8.57;2.72;;;;;;;24.09;42.47;96298.63;5032977;28;20222;-65
2022/10/28 11:03:01;;;;;;;9.98;3.15;;;;;;;24.32;43.29;96260.44;5032928;28;20194;-61
2022/10/28 11:05:27;;;;;;;5.38;3.17;;;;;;;24.29;42.31;96294.59;5033421;28;20230;-61
2022/10/28 11:07:53;;;;;;;3.92;2.47;;;;;;;24.14;42.17;96289.31;5033096;28;20683;-61
2022/10/28 11:10:28;;;;;;;7.22;3.22;;;;;;;24.34;42.58;96266.25;5033223;28;20237;-60
2022/10/28 11:13:04;;;;;;;7.78;3.15;;;;;;;24.22;43.21;96251.28;5033075;28;20233;-60
2022/10/28 11:15:30;;;;;;;7.43;3.15;;;;;;;24.23;43.84;96224.28;5033098;28;20216;-61
2022/10/28 11:18:03;;;;;;;6.82;2.90;;;;;;;24.03;43.02;96242.97;5032661;28;20268;-61
2022/10/28 11:20:45;;;;;;;7.20;2.78;;;;;;;23.98;42.74;96253.03;5032751;28;20206;-60
2022/10/28 11:23:41;;;;;;;3.72;2.50;;;;;;;23.82;41.77;96270.50;5032760;28;20204;-61
2022/10/28 11:26:12;;;;;;;6.78;3.20;;;;;;;23.88;43.68;96207.44;5032377;28;20230;-62
2022/10/28 11:29:04;;;;;;;6.18;2.83;;;;;;;24.02;42.12;96253.47;5015397;28;20684;-60
2022/10/28 11:31:47;;;;;;;6.07;3.20;;;;;;;24.07;41.41;96279.81;5032920;28;20193;-62
2022/10/28 11:34:37;;;;;;;7.50;3.03;;;;;;;24.29;41.37;96263.38;5032532;28;20210;-62
2022/10/28 11:37:21;;;;;;;6.13;3.03;;;;;;;24.39;42.19;96235.34;5032686;28;20224;-63
2022/10/28 11:39:49;;;;;;;5.30;2.97;;;;;;;24.45;42.06;96239.84;5014584;28;20275;-62
2022/10/28 11:42:49;;;;;;;8.82;2.92;;;;;;;24.39;41.00;96269.16;5032555;28;20244;-60